createdAt,value
2017-08-10T00:00:12.239Z,16.5
2017-08-10T00:01:11.818Z,16.5
2017-08-10T00:02:11.281Z,16.5
2017-08-10T00:03:10.122Z,16.5
2017-08-10T00:04:09.468Z,16.5
2017-08-10T00:05:09.185Z,16.5
2017-08-10T00:06:08.379Z,16.5
2017-08-10T00:07:07.967Z,16.4
2017-08-10T00:08:07.154Z,16.4
2017-08-10T00:09:06.505Z,16.4
2017-08-10T00:10:05.757Z,16.4
2017-08-10T00:11:04.833Z,16.4
2017-08-10T00:12:04.301Z,16.4
2017-08-10T00:13:03.878Z,16.4
2017-08-10T00:14:03.095Z,16.3
2017-08-10T00:15:02.290Z,16.3
2017-08-10T00:16:01.512Z,16.2
2017-08-10T00:17:01.088Z,16.2
2017-08-10T00:18:00.162Z,16.2
2017-08-10T00:18:59.383Z,16.1
2017-08-10T00:19:59.091Z,16.1
2017-08-10T00:20:58.280Z,16.1
2017-08-10T00:21:57.465Z,16.1
2017-08-10T00:22:27.843Z,16.1
2017-08-10T00:23:56.221Z,16.1
2017-08-10T00:24:55.303Z,16
2017-08-10T00:25:54.513Z,16
2017-08-10T00:26:54.088Z,16
2017-08-10T00:27:53.169Z,16
2017-08-10T00:28:52.647Z,16
2017-08-10T00:29:51.857Z,15.9
2017-08-10T00:30:51.064Z,15.9
2017-08-10T00:31:50.647Z,15.9
2017-08-10T00:32:50.112Z,15.9
2017-08-10T00:33:20.610Z,15.9
2017-08-10T00:34:48.398Z,15.9
2017-08-10T00:36:46.875Z,15.9
2017-08-10T00:37:46.352Z,15.9
2017-08-10T00:38:45.556Z,15.8
2017-08-10T00:39:45.148Z,15.8
2017-08-10T00:40:44.350Z,15.8
2017-08-10T00:41:43.316Z,15.8
2017-08-10T00:42:42.775Z,15.8
2017-08-10T00:43:42.239Z,15.8
2017-08-10T00:44:41.714Z,15.8
2017-08-10T00:45:40.924Z,15.8
2017-08-10T00:46:40.166Z,15.8
2017-08-10T00:47:39.354Z,15.8
2017-08-10T00:48:38.425Z,15.8
2017-08-10T00:49:38.132Z,15.7
2017-08-10T00:50:37.328Z,15.7
2017-08-10T00:51:36.405Z,15.7
2017-08-10T00:52:35.975Z,15.7
2017-08-10T00:53:35.057Z,15.6
2017-08-10T00:54:34.630Z,15.6
2017-08-10T00:55:33.815Z,15.6
2017-08-10T00:56:32.895Z,15.6
2017-08-10T00:57:32.162Z,15.6
2017-08-10T00:58:31.876Z,15.6
2017-08-10T01:00:30.478Z,15.6
2017-08-10T01:01:29.680Z,15.6
2017-08-10T01:02:28.873Z,15.6
2017-08-10T01:03:27.942Z,15.6
2017-08-10T01:04:27.525Z,15.6
2017-08-10T01:05:26.496Z,15.5
2017-08-10T01:06:25.965Z,15.5
2017-08-10T01:07:25.152Z,15.5
2017-08-10T01:08:24.343Z,15.5
2017-08-10T01:09:24.034Z,15.5
2017-08-10T01:10:23.234Z,15.5
2017-08-10T01:11:22.319Z,15.5
2017-08-10T01:11:52.838Z,15.5
2017-08-10T01:12:23.112Z,15.5
2017-08-10T01:12:53.495Z,15.5
2017-08-10T01:13:23.996Z,15.5
2017-08-10T01:13:54.387Z,15.5
2017-08-10T01:14:24.787Z,15.5
2017-08-10T01:14:55.179Z,15.5
2017-08-10T01:15:25.580Z,15.5
2017-08-10T01:15:56.093Z,15.5
2017-08-10T01:18:17.587Z,15.5
2017-08-10T01:19:16.796Z,15.6
2017-08-10T01:20:15.859Z,15.5
2017-08-10T01:21:15.550Z,15.5
2017-08-10T01:22:14.639Z,15.5
2017-08-10T01:23:13.828Z,15.5
2017-08-10T01:24:13.017Z,15.5
2017-08-10T01:25:12.573Z,15.5
2017-08-10T01:26:11.520Z,15.5
2017-08-10T01:27:10.977Z,15.5
2017-08-10T01:28:10.056Z,15.5
2017-08-10T01:29:09.636Z,15.5
2017-08-10T01:31:08.094Z,15.5
2017-08-10T01:32:07.654Z,15.5
2017-08-10T01:33:06.761Z,15.5
2017-08-10T01:34:05.951Z,15.5
2017-08-10T01:36:04.539Z,15.5
2017-08-10T01:37:03.618Z,15.5
2017-08-10T01:38:03.065Z,15.5
2017-08-10T01:39:02.146Z,15.6
2017-08-10T01:40:01.850Z,15.5
2017-08-10T01:41:00.706Z,15.6
2017-08-10T01:42:00.277Z,15.5
2017-08-10T01:42:59.621Z,15.5
2017-08-10T01:43:58.965Z,15.5
2017-08-10T01:44:29.354Z,15.5
2017-08-10T01:44:59.860Z,15.5
2017-08-10T01:45:57.564Z,15.5
2017-08-10T01:46:56.651Z,15.5
2017-08-10T01:47:55.720Z,15.5
2017-08-10T01:48:55.179Z,15.6
2017-08-10T01:49:54.633Z,15.6
2017-08-10T01:50:53.977Z,15.6
2017-08-10T01:51:53.182Z,15.6
2017-08-10T01:53:51.650Z,15.5
2017-08-10T01:54:50.848Z,15.5
2017-08-10T01:55:50.040Z,15.5
2017-08-10T01:56:49.634Z,15.5
2017-08-10T01:57:48.830Z,15.6
2017-08-10T01:58:48.012Z,15.5
2017-08-10T01:59:47.090Z,15.6
2017-08-10T02:00:46.318Z,15.6
2017-08-10T02:01:46.016Z,15.6
2017-08-10T02:02:45.097Z,15.6
2017-08-10T02:03:44.297Z,15.6
2017-08-10T02:04:43.481Z,15.6
2017-08-10T02:05:13.993Z,15.6
2017-08-10T02:05:44.387Z,15.6
2017-08-10T02:06:42.357Z,15.6
2017-08-10T02:07:41.556Z,15.6
2017-08-10T02:08:40.640Z,15.6
2017-08-10T02:09:40.217Z,15.6
2017-08-10T02:10:10.729Z,15.6
2017-08-10T02:10:41.115Z,15.6
2017-08-10T02:11:38.673Z,15.6
2017-08-10T02:12:37.858Z,15.5
2017-08-10T02:13:36.926Z,15.6
2017-08-10T02:14:36.513Z,15.5
2017-08-10T02:15:35.712Z,15.6
2017-08-10T02:16:34.896Z,15.6
2017-08-10T02:17:34.114Z,15.6
2017-08-10T02:18:33.185Z,15.6
2017-08-10T02:19:32.774Z,15.6
2017-08-10T02:20:03.169Z,15.6
2017-08-10T02:20:33.551Z,15.6
2017-08-10T02:21:03.942Z,15.6
2017-08-10T02:21:34.455Z,15.6
2017-08-10T02:22:30.631Z,15.6
2017-08-10T02:23:59.366Z,15.6
2017-08-10T02:24:01.322Z,15.6
2017-08-10T02:25:28.569Z,15.6
2017-08-10T02:26:27.776Z,15.6
2017-08-10T02:27:26.960Z,15.6
2017-08-10T02:28:26.140Z,15.6
2017-08-10T02:29:25.724Z,15.5
2017-08-10T02:30:24.799Z,15.6
2017-08-10T02:31:24.249Z,15.5
2017-08-10T02:32:23.444Z,15.5
2017-08-10T02:33:22.624Z,15.5
2017-08-10T02:34:21.801Z,15.5
2017-08-10T02:35:20.986Z,15.5
2017-08-10T02:36:20.581Z,15.5
2017-08-10T02:37:19.778Z,15.5
2017-08-10T02:38:18.965Z,15.5
2017-08-10T02:39:18.134Z,15.5
2017-08-10T02:40:17.323Z,15.5
2017-08-10T02:41:16.903Z,15.5
2017-08-10T02:42:15.968Z,15.5
2017-08-10T02:43:15.174Z,15.5
2017-08-10T02:44:14.854Z,15.5
2017-08-10T02:45:13.813Z,15.6
2017-08-10T02:46:12.998Z,15.6
2017-08-10T02:47:12.470Z,15.6
2017-08-10T02:48:11.535Z,15.6
2017-08-10T02:49:11.108Z,15.6
2017-08-10T02:50:10.288Z,15.6
2017-08-10T02:51:09.354Z,15.6
2017-08-10T02:52:08.941Z,15.6
2017-08-10T02:53:08.007Z,15.6
2017-08-10T02:54:07.565Z,15.6
2017-08-10T02:55:06.760Z,15.5
2017-08-10T02:56:05.942Z,15.5
2017-08-10T02:57:05.008Z,15.5
2017-08-10T02:58:04.705Z,15.6
2017-08-10T02:59:03.768Z,15.5
2017-08-10T02:59:34.171Z,15.5
2017-08-10T03:00:04.665Z,15.5
2017-08-10T03:00:35.167Z,15.5
2017-08-10T03:01:05.667Z,15.6
2017-08-10T03:01:36.047Z,15.6
2017-08-10T03:02:06.546Z,15.6
2017-08-10T03:02:36.912Z,15.6
2017-08-10T03:03:07.416Z,15.6
2017-08-10T03:03:37.921Z,15.6
2017-08-10T03:04:59.246Z,15.6
2017-08-10T03:06:57.800Z,15.6
2017-08-10T03:07:57.235Z,15.6
2017-08-10T03:08:56.306Z,15.6
2017-08-10T03:09:55.998Z,15.6
2017-08-10T03:10:55.183Z,15.6
2017-08-10T03:11:54.384Z,15.6
2017-08-10T03:12:53.572Z,15.7
2017-08-10T03:13:23.957Z,15.7
2017-08-10T03:14:52.215Z,15.7
2017-08-10T03:15:51.157Z,15.7
2017-08-10T03:16:50.722Z,15.7
2017-08-10T03:17:49.795Z,15.7
2017-08-10T03:19:48.356Z,15.7
2017-08-10T03:20:48.033Z,15.7
2017-08-10T03:21:46.981Z,15.7
2017-08-10T03:22:46.422Z,15.7
2017-08-10T03:23:45.374Z,15.7
2017-08-10T03:24:45.069Z,15.7
2017-08-10T03:25:44.025Z,15.7
2017-08-10T03:26:43.588Z,15.7
2017-08-10T03:27:42.652Z,15.7
2017-08-10T03:28:42.228Z,15.8
2017-08-10T03:29:41.412Z,15.8
2017-08-10T03:30:40.619Z,15.8
2017-08-10T03:31:39.853Z,15.7
2017-08-10T03:32:10.359Z,15.7
2017-08-10T03:33:38.238Z,15.8
2017-08-10T03:34:37.909Z,15.8
2017-08-10T03:35:36.972Z,15.8
2017-08-10T03:36:36.139Z,15.8
2017-08-10T03:37:35.324Z,15.8
2017-08-10T03:38:34.653Z,15.8
2017-08-10T03:39:33.849Z,15.8
2017-08-10T03:40:33.073Z,15.8
2017-08-10T03:41:32.657Z,15.8
2017-08-10T03:42:31.836Z,15.8
2017-08-10T03:43:31.017Z,15.8
2017-08-10T03:44:30.704Z,15.8
2017-08-10T03:45:29.886Z,15.8
2017-08-10T03:46:29.060Z,15.8
2017-08-10T03:47:28.246Z,15.8
2017-08-10T03:48:27.430Z,15.8
2017-08-10T03:49:27.002Z,15.8
2017-08-10T03:50:26.056Z,15.8
2017-08-10T03:51:25.121Z,15.8
2017-08-10T03:52:24.808Z,15.8
2017-08-10T03:53:23.992Z,15.8
2017-08-10T03:53:54.490Z,15.8
2017-08-10T03:54:24.868Z,15.7
2017-08-10T03:55:22.548Z,15.7
2017-08-10T03:56:21.999Z,15.7
2017-08-10T03:57:21.169Z,15.6
2017-08-10T03:58:20.622Z,15.6
2017-08-10T03:59:19.690Z,15.6
2017-08-10T04:00:18.868Z,15.6
2017-08-10T04:01:18.322Z,15.6
2017-08-10T04:02:17.509Z,15.6
2017-08-10T04:03:16.684Z,15.6
2017-08-10T04:04:16.263Z,15.6
2017-08-10T04:05:15.229Z,15.6
2017-08-10T04:06:14.793Z,15.6
2017-08-10T04:07:13.845Z,15.7
2017-08-10T04:08:13.046Z,15.7
2017-08-10T04:09:12.216Z,15.6
2017-08-10T04:10:11.795Z,15.6
2017-08-10T04:11:10.857Z,15.6
2017-08-10T04:12:10.310Z,15.6
2017-08-10T04:13:09.495Z,15.6
2017-08-10T04:14:08.815Z,15.7
2017-08-10T04:15:08.156Z,15.7
2017-08-10T04:16:07.236Z,15.7
2017-08-10T04:17:06.379Z,15.7
2017-08-10T04:18:06.059Z,15.7
2017-08-10T04:19:05.126Z,15.7
2017-08-10T04:20:04.346Z,15.6
2017-08-10T04:21:03.924Z,15.6
2017-08-10T04:22:02.874Z,15.6
2017-08-10T04:23:02.311Z,15.5
2017-08-10T04:24:01.497Z,15.5
2017-08-10T04:25:00.684Z,15.5
2017-08-10T04:26:00.247Z,15.5
2017-08-10T04:26:59.199Z,15.5
2017-08-10T04:27:58.756Z,15.5
2017-08-10T04:28:57.692Z,15.4
2017-08-10T04:29:57.396Z,15.5
2017-08-10T04:30:56.351Z,15.4
2017-08-10T04:31:55.802Z,15.4
2017-08-10T04:32:54.980Z,15.4
2017-08-10T04:33:54.163Z,15.4
2017-08-10T04:34:53.345Z,15.4
2017-08-10T04:35:53.018Z,15.4
2017-08-10T04:36:52.215Z,15.4
2017-08-10T04:37:51.281Z,15.4
2017-08-10T04:38:50.735Z,15.4
2017-08-10T04:40:49.310Z,15.4
2017-08-10T04:41:48.148Z,15.4
2017-08-10T04:42:47.842Z,15.3
2017-08-10T04:43:47.033Z,15.3
2017-08-10T04:44:46.093Z,15.3
2017-08-10T04:45:45.670Z,15.3
2017-08-10T04:46:44.494Z,15.3
2017-08-10T04:47:43.947Z,15.3
2017-08-10T04:48:14.336Z,15.3
2017-08-10T04:48:44.845Z,15.3
2017-08-10T04:49:15.350Z,15.3
2017-08-10T04:49:45.841Z,15.3
2017-08-10T04:50:16.332Z,15.3
2017-08-10T04:51:41.069Z,15.3
2017-08-10T04:52:40.263Z,15.3
2017-08-10T04:53:39.956Z,15.2
2017-08-10T04:54:38.903Z,15.2
2017-08-10T04:55:38.095Z,15.2
2017-08-10T04:56:37.774Z,15.2
2017-08-10T04:57:36.960Z,15.2
2017-08-10T04:58:36.146Z,15.2
2017-08-10T04:59:35.215Z,15.2
2017-08-10T05:00:34.668Z,15.2
2017-08-10T05:01:33.748Z,15.2
2017-08-10T05:02:32.812Z,15.2
2017-08-10T05:03:32.266Z,15.2
2017-08-10T05:04:31.452Z,15.2
2017-08-10T05:05:31.150Z,15.1
2017-08-10T05:06:30.333Z,15.1
2017-08-10T05:07:29.508Z,15.1
2017-08-10T05:08:00.022Z,15.1
2017-08-10T05:08:30.514Z,15.1
2017-08-10T05:09:00.786Z,15.1
2017-08-10T05:10:27.142Z,15.1
2017-08-10T05:11:26.705Z,15.1
2017-08-10T05:12:25.773Z,15.1
2017-08-10T05:13:24.952Z,15
2017-08-10T05:14:24.132Z,15.1
2017-08-10T05:15:23.832Z,15
2017-08-10T05:16:22.902Z,15
2017-08-10T05:17:21.956Z,15
2017-08-10T05:18:21.640Z,15
2017-08-10T05:18:51.888Z,15
2017-08-10T05:19:22.036Z,15
2017-08-10T05:19:52.280Z,15
2017-08-10T05:20:22.763Z,15
2017-08-10T05:20:53.007Z,15
2017-08-10T05:21:23.519Z,15
2017-08-10T05:21:53.899Z,15
2017-08-10T05:23:17.744Z,15
2017-08-10T05:24:16.813Z,15
2017-08-10T05:25:16.491Z,15
2017-08-10T05:26:15.565Z,15
2017-08-10T05:27:14.754Z,15
2017-08-10T05:28:13.941Z,15
2017-08-10T05:29:13.503Z,15
2017-08-10T05:30:12.556Z,15
2017-08-10T05:31:11.744Z,15
2017-08-10T05:32:10.930Z,15
2017-08-10T05:33:10.638Z,15
2017-08-10T05:34:09.588Z,15
2017-08-10T05:35:08.542Z,15
2017-08-10T05:36:07.886Z,15
2017-08-10T05:37:07.440Z,15
2017-08-10T05:38:06.496Z,15
2017-08-10T05:39:06.194Z,15
2017-08-10T05:40:05.372Z,15
2017-08-10T05:41:04.334Z,15
2017-08-10T05:42:03.398Z,15
2017-08-10T05:43:02.960Z,15
2017-08-10T05:45:01.536Z,15
2017-08-10T05:46:00.606Z,15
2017-08-10T05:47:00.044Z,15
2017-08-10T05:47:59.113Z,15
2017-08-10T05:48:58.681Z,15.1
2017-08-10T05:49:57.762Z,15
2017-08-10T05:50:56.758Z,15
2017-08-10T05:51:56.099Z,15.1
2017-08-10T05:52:55.660Z,15.1
2017-08-10T05:53:54.722Z,15.1
2017-08-10T05:54:53.906Z,15
2017-08-10T05:55:53.480Z,15
2017-08-10T05:56:52.687Z,15
2017-08-10T05:57:51.759Z,15
2017-08-10T05:58:50.953Z,15
2017-08-10T05:59:50.510Z,15
2017-08-10T06:00:21.176Z,15
2017-08-10T06:00:51.547Z,15
2017-08-10T06:01:21.928Z,15
2017-08-10T06:01:52.305Z,15
2017-08-10T06:02:48.227Z,15
2017-08-10T06:03:47.296Z,15
2017-08-10T06:04:46.482Z,15
2017-08-10T06:05:46.165Z,15
2017-08-10T06:06:45.237Z,15
2017-08-10T06:07:44.180Z,15
2017-08-10T06:08:43.747Z,15
2017-08-10T06:09:43.211Z,15
2017-08-10T06:11:41.676Z,15.1
2017-08-10T06:12:40.745Z,15
2017-08-10T06:13:39.937Z,15.1
2017-08-10T06:14:39.503Z,15.1
2017-08-10T06:15:38.675Z,15.1
2017-08-10T06:16:09.060Z,15.1
2017-08-10T06:16:39.429Z,15.1
2017-08-10T06:17:37.131Z,15.1
2017-08-10T06:18:36.191Z,15.1
2017-08-10T06:19:35.915Z,15.1
2017-08-10T06:20:34.985Z,15.1
2017-08-10T06:21:34.055Z,15.1
2017-08-10T06:22:33.619Z,15.1
2017-08-10T06:23:32.693Z,15.2
2017-08-10T06:24:31.868Z,15.1
2017-08-10T06:25:31.350Z,15.1
2017-08-10T06:26:30.533Z,15.2
2017-08-10T06:27:29.717Z,15.2
2017-08-10T06:28:29.160Z,15.2
2017-08-10T06:29:28.235Z,15.2
2017-08-10T06:30:27.421Z,15.2
2017-08-10T06:31:26.605Z,15.2
2017-08-10T06:32:26.304Z,15.2
2017-08-10T06:33:25.491Z,15.2
2017-08-10T06:34:24.678Z,15.2
2017-08-10T06:36:23.139Z,15.2
2017-08-10T06:36:53.637Z,15.2
2017-08-10T06:37:23.901Z,15.1
2017-08-10T06:37:54.398Z,15.1
2017-08-10T06:39:20.678Z,15.1
2017-08-10T06:40:20.139Z,15.1
2017-08-10T06:41:19.203Z,15.1
2017-08-10T06:42:18.896Z,15.1
2017-08-10T06:43:17.965Z,15.1
2017-08-10T06:44:17.031Z,15.1
2017-08-10T06:45:16.744Z,15.1
2017-08-10T06:46:15.812Z,15.2
2017-08-10T06:47:14.887Z,15.2
2017-08-10T06:49:13.734Z,15.2
2017-08-10T06:50:12.920Z,15.2
2017-08-10T06:51:11.978Z,15.2
2017-08-10T06:53:10.689Z,15.2
2017-08-10T06:54:09.741Z,15.2
2017-08-10T06:55:09.308Z,15.2
2017-08-10T06:55:39.438Z,15.2
2017-08-10T06:56:09.931Z,15.2
2017-08-10T06:56:40.442Z,15.2
2017-08-10T06:57:10.715Z,15.3
2017-08-10T06:58:06.767Z,15.2
2017-08-10T06:59:06.459Z,15.2
2017-08-10T07:00:05.550Z,15.2
2017-08-10T07:01:04.885Z,15.1
2017-08-10T07:02:04.076Z,15.1
2017-08-10T07:03:03.279Z,15.1
2017-08-10T07:04:02.450Z,15.1
2017-08-10T07:05:01.508Z,15.1
2017-08-10T07:05:31.998Z,15.1
2017-08-10T07:06:02.377Z,15.1
2017-08-10T07:06:32.865Z,15.1
2017-08-10T07:07:03.253Z,15.1
2017-08-10T07:07:33.507Z,15.1
2017-08-10T07:08:04.005Z,15.1
2017-08-10T07:08:34.278Z,15.1
2017-08-10T07:09:05.164Z,15.1
2017-08-10T07:09:35.659Z,15.1
2017-08-10T07:10:57.365Z,15.1
2017-08-10T07:11:56.411Z,15.1
2017-08-10T07:12:55.992Z,15.1
2017-08-10T07:13:55.180Z,15.1
2017-08-10T07:14:54.362Z,15.1
2017-08-10T07:15:53.440Z,15.1
2017-08-10T07:16:53.132Z,15.1
2017-08-10T07:17:52.334Z,15.1
2017-08-10T07:18:51.390Z,15.1
2017-08-10T07:19:50.880Z,15.1
2017-08-10T07:20:49.937Z,15.1
2017-08-10T07:21:49.508Z,15.1
2017-08-10T07:22:48.712Z,15.2
2017-08-10T07:23:47.773Z,15.1
2017-08-10T07:24:46.966Z,15.2
2017-08-10T07:25:46.152Z,15.2
2017-08-10T07:26:45.839Z,15.2
2017-08-10T07:27:45.020Z,15.2
2017-08-10T07:28:44.101Z,15.2
2017-08-10T07:29:43.669Z,15.2
2017-08-10T07:30:42.738Z,15.2
2017-08-10T07:31:41.819Z,15.2
2017-08-10T07:32:41.008Z,15.3
2017-08-10T07:33:40.705Z,15.3
2017-08-10T07:34:39.907Z,15.3
2017-08-10T07:35:38.848Z,15.3
2017-08-10T07:36:38.532Z,15.3
2017-08-10T07:37:37.616Z,15.3
2017-08-10T07:38:36.815Z,15.3
2017-08-10T07:39:35.869Z,15.3
2017-08-10T07:40:35.445Z,15.3
2017-08-10T07:41:34.508Z,15.4
2017-08-10T07:42:33.697Z,15.4
2017-08-10T07:43:33.266Z,15.4
2017-08-10T07:44:32.445Z,15.4
2017-08-10T07:45:31.401Z,15.4
2017-08-10T07:46:31.093Z,15.4
2017-08-10T07:47:30.046Z,15.4
2017-08-10T07:48:00.530Z,15.4
2017-08-10T07:48:30.939Z,15.4
2017-08-10T07:49:01.435Z,15.4
2017-08-10T07:50:27.692Z,15.4
2017-08-10T07:51:27.375Z,15.4
2017-08-10T07:52:26.336Z,15.4
2017-08-10T07:53:25.904Z,15.4
2017-08-10T07:54:25.095Z,15.4
2017-08-10T07:55:24.311Z,15.4
2017-08-10T07:56:23.536Z,15.5
2017-08-10T07:57:23.108Z,15.4
2017-08-10T07:58:22.295Z,15.4
2017-08-10T07:58:52.670Z,15.4
2017-08-10T07:59:23.169Z,15.5
2017-08-10T08:00:20.483Z,15.5
2017-08-10T08:01:20.161Z,15.5
2017-08-10T08:02:19.234Z,15.5
2017-08-10T08:03:18.420Z,15.5
2017-08-10T08:03:48.913Z,15.5
2017-08-10T08:05:17.185Z,15.5
2017-08-10T08:06:16.358Z,15.5
2017-08-10T08:07:15.435Z,15.5
2017-08-10T08:08:14.633Z,15.5
2017-08-10T08:09:14.192Z,15.5
2017-08-10T08:10:13.131Z,15.5
2017-08-10T08:11:12.831Z,15.5
2017-08-10T08:12:12.009Z,15.5
2017-08-10T08:13:10.951Z,15.6
2017-08-10T08:14:10.626Z,15.6
2017-08-10T08:15:09.569Z,15.5
2017-08-10T08:16:08.524Z,15.5
2017-08-10T08:17:08.106Z,15.5
2017-08-10T08:18:07.168Z,15.5
2017-08-10T08:19:06.863Z,15.6
2017-08-10T08:20:06.053Z,15.6
2017-08-10T08:21:05.112Z,15.6
2017-08-10T08:22:04.690Z,15.6
2017-08-10T08:23:03.641Z,15.6
2017-08-10T08:24:03.096Z,15.6
2017-08-10T08:25:02.277Z,15.6
2017-08-10T08:26:01.831Z,15.6
2017-08-10T08:27:00.894Z,15.6
2017-08-10T08:28:00.078Z,15.6
2017-08-10T08:28:59.422Z,15.7
2017-08-10T08:29:58.879Z,15.7
2017-08-10T08:30:57.938Z,15.7
2017-08-10T08:31:57.500Z,15.7
2017-08-10T08:32:56.691Z,15.8
2017-08-10T08:33:55.761Z,15.8
2017-08-10T08:34:54.944Z,15.9
2017-08-10T08:35:54.617Z,15.9
2017-08-10T08:36:53.793Z,15.9
2017-08-10T08:37:52.853Z,15.9
2017-08-10T08:38:52.411Z,15.9
2017-08-10T08:39:51.483Z,16
2017-08-10T08:40:50.664Z,16
2017-08-10T08:41:49.840Z,16
2017-08-10T08:42:49.296Z,16
2017-08-10T08:43:48.351Z,16
2017-08-10T08:44:48.040Z,16.1
2017-08-10T08:45:47.210Z,16.1
2017-08-10T08:46:46.429Z,16.1
2017-08-10T08:48:45.002Z,16.2
2017-08-10T08:49:44.075Z,16.2
2017-08-10T08:50:43.253Z,16.2
2017-08-10T08:51:42.937Z,16.2
2017-08-10T08:52:42.117Z,16.3
2017-08-10T08:53:12.254Z,16.3
2017-08-10T08:53:42.620Z,16.3
2017-08-10T08:54:12.999Z,16.3
2017-08-10T08:54:43.497Z,16.3
2017-08-10T08:55:13.988Z,16.3
2017-08-10T08:55:44.243Z,16.3
2017-08-10T08:56:14.627Z,16.3
2017-08-10T08:56:44.888Z,16.3
2017-08-10T08:57:15.391Z,16.3
2017-08-10T08:58:37.603Z,16.3
2017-08-10T08:59:36.797Z,16.3
2017-08-10T09:00:36.247Z,16.3
2017-08-10T09:01:35.822Z,16.3
2017-08-10T09:02:34.897Z,16.3
2017-08-10T09:03:34.076Z,16.3
2017-08-10T09:04:33.268Z,16.4
2017-08-10T09:05:32.447Z,16.4
2017-08-10T09:06:32.137Z,16.4
2017-08-10T09:07:31.192Z,16.4
2017-08-10T09:08:30.267Z,16.4
2017-08-10T09:09:29.853Z,16.5
2017-08-10T09:10:28.800Z,16.5
2017-08-10T09:11:28.381Z,16.5
2017-08-10T09:12:27.442Z,16.5
2017-08-10T09:13:26.769Z,16.5
2017-08-10T09:14:26.452Z,16.6
2017-08-10T09:15:25.634Z,16.6
2017-08-10T09:16:24.813Z,16.6
2017-08-10T09:17:23.998Z,16.6
2017-08-10T09:18:23.570Z,16.6
2017-08-10T09:19:22.640Z,16.7
2017-08-10T09:20:21.829Z,16.7
2017-08-10T09:21:21.402Z,16.7
2017-08-10T09:22:20.227Z,16.7
2017-08-10T09:23:19.925Z,16.7
2017-08-10T09:24:18.861Z,16.7
2017-08-10T09:25:18.558Z,16.7
2017-08-10T09:26:17.738Z,16.6
2017-08-10T09:27:16.813Z,16.6
2017-08-10T09:28:15.888Z,16.6
2017-08-10T09:29:15.344Z,16.6
2017-08-10T09:30:14.669Z,16.6
2017-08-10T09:31:13.850Z,16.6
2017-08-10T09:32:13.416Z,16.6
2017-08-10T09:33:12.478Z,16.7
2017-08-10T09:34:11.689Z,16.7
2017-08-10T09:34:42.172Z,16.7
2017-08-10T09:35:12.545Z,16.7
2017-08-10T09:35:42.944Z,16.7
2017-08-10T09:37:09.809Z,16.7
2017-08-10T09:38:08.878Z,16.7
2017-08-10T09:39:08.440Z,16.7
2017-08-10T09:40:07.623Z,16.7
2017-08-10T09:41:06.818Z,16.7
2017-08-10T09:42:06.265Z,16.7
2017-08-10T09:43:05.367Z,16.7
2017-08-10T09:44:05.076Z,16.7
2017-08-10T09:45:04.034Z,16.7
2017-08-10T09:46:03.208Z,16.8
2017-08-10T09:46:33.418Z,16.8
2017-08-10T09:47:03.907Z,16.8
2017-08-10T09:47:34.289Z,16.8
2017-08-10T09:48:05.049Z,16.8
2017-08-10T09:49:01.105Z,16.8
2017-08-10T09:50:00.686Z,16.8
2017-08-10T09:50:59.766Z,16.9
2017-08-10T09:51:58.948Z,16.9
2017-08-10T09:52:58.632Z,16.9
2017-08-10T09:53:57.810Z,16.9
2017-08-10T09:54:56.765Z,16.9
2017-08-10T09:55:56.459Z,16.9
2017-08-10T09:56:55.644Z,17
2017-08-10T09:57:54.595Z,17
2017-08-10T09:58:54.276Z,17
2017-08-10T09:59:53.337Z,17.1
2017-08-10T10:00:52.802Z,17.1
2017-08-10T10:01:52.374Z,17.1
2017-08-10T10:02:51.333Z,17.1
2017-08-10T10:03:50.393Z,17.1
2017-08-10T10:04:49.966Z,17.1
2017-08-10T10:05:49.144Z,17.1
2017-08-10T10:06:48.727Z,17.1
2017-08-10T10:07:19.103Z,17.1
2017-08-10T10:07:49.602Z,17.1
2017-08-10T10:08:47.032Z,17.1
2017-08-10T10:09:46.750Z,17.1
2017-08-10T10:10:45.707Z,17
2017-08-10T10:11:44.829Z,17.1
2017-08-10T10:12:44.384Z,17.1
2017-08-10T10:13:43.835Z,17.1
2017-08-10T10:14:42.893Z,17.1
2017-08-10T10:15:42.470Z,17.1
2017-08-10T10:16:41.663Z,17.2
2017-08-10T10:17:40.752Z,17.2
2017-08-10T10:18:40.443Z,17.2
2017-08-10T10:19:39.502Z,17.2
2017-08-10T10:20:38.684Z,17.2
2017-08-10T10:21:38.151Z,17.2
2017-08-10T10:22:37.340Z,17.2
2017-08-10T10:23:36.282Z,17.2
2017-08-10T10:24:35.845Z,17.1
2017-08-10T10:25:35.413Z,17.1
2017-08-10T10:26:34.371Z,17.1
2017-08-10T10:27:34.057Z,17.1
2017-08-10T10:28:33.244Z,17.2
2017-08-10T10:29:32.430Z,17.2
2017-08-10T10:30:31.510Z,17.2
2017-08-10T10:31:31.076Z,17.3
2017-08-10T10:32:30.523Z,17.2
2017-08-10T10:33:29.466Z,17.3
2017-08-10T10:34:28.924Z,17.3
2017-08-10T10:35:28.099Z,17.4
2017-08-10T10:36:27.543Z,17.4
2017-08-10T10:37:26.723Z,17.4
2017-08-10T10:38:26.295Z,17.4
2017-08-10T10:39:25.496Z,17.4
2017-08-10T10:40:24.696Z,17.4
2017-08-10T10:41:24.277Z,17.4
2017-08-10T10:41:54.709Z,17.4
2017-08-10T10:42:24.968Z,17.4
2017-08-10T10:42:55.484Z,17.4
2017-08-10T10:43:25.979Z,17.4
2017-08-10T10:43:56.351Z,17.4
2017-08-10T10:45:21.211Z,17.4
2017-08-10T10:46:20.683Z,17.5
2017-08-10T10:47:19.872Z,17.5
2017-08-10T10:48:19.428Z,17.5
2017-08-10T10:49:18.385Z,17.5
2017-08-10T10:50:17.966Z,17.5
2017-08-10T10:51:16.921Z,17.5
2017-08-10T10:52:16.491Z,17.4
2017-08-10T10:53:16.067Z,17.5
2017-08-10T10:54:15.130Z,17.5
2017-08-10T10:56:13.571Z,17.5
2017-08-10T10:57:13.147Z,17.5
2017-08-10T10:58:12.329Z,17.6
2017-08-10T10:59:11.395Z,17.6
2017-08-10T11:00:11.096Z,17.6
2017-08-10T11:01:10.036Z,17.7
2017-08-10T11:01:40.405Z,17.7
2017-08-10T11:02:10.780Z,17.6
2017-08-10T11:02:41.174Z,17.6
2017-08-10T11:03:11.570Z,17.7
2017-08-10T11:04:08.228Z,17.7
2017-08-10T11:05:07.327Z,17.7
2017-08-10T11:06:06.900Z,17.7
2017-08-10T11:07:06.087Z,17.8
2017-08-10T11:08:05.264Z,17.8
2017-08-10T11:09:04.947Z,17.8
2017-08-10T11:10:03.771Z,17.8
2017-08-10T11:11:03.455Z,17.8
2017-08-10T11:12:02.629Z,17.8
2017-08-10T11:13:02.074Z,17.8
2017-08-10T11:14:01.143Z,17.8
2017-08-10T11:14:31.324Z,17.8
2017-08-10T11:15:01.715Z,17.8
2017-08-10T11:15:31.981Z,17.8
2017-08-10T11:16:59.238Z,17.9
2017-08-10T11:17:58.711Z,17.9
2017-08-10T11:18:58.160Z,17.9
2017-08-10T11:19:56.981Z,18
2017-08-10T11:20:56.432Z,18
2017-08-10T11:21:55.875Z,18
2017-08-10T11:22:54.946Z,18.1
2017-08-10T11:23:54.627Z,18.1
2017-08-10T11:24:53.557Z,18.1
2017-08-10T11:25:53.262Z,18.1
2017-08-10T11:26:52.452Z,18.1
2017-08-10T11:27:51.969Z,18.1
2017-08-10T11:28:50.905Z,18.1
2017-08-10T11:29:50.473Z,18.2
2017-08-10T11:30:49.536Z,18.2
2017-08-10T11:31:49.098Z,18.3
2017-08-10T11:32:48.170Z,18.2
2017-08-10T11:33:47.871Z,18.2
2017-08-10T11:34:46.983Z,18.2
2017-08-10T11:35:46.464Z,18.2
2017-08-10T11:36:16.955Z,18.2
2017-08-10T11:36:47.332Z,18.3
2017-08-10T11:37:44.886Z,18.3
2017-08-10T11:38:44.322Z,18.3
2017-08-10T11:39:43.874Z,18.3
2017-08-10T11:40:42.943Z,18.3
2017-08-10T11:41:42.525Z,18.3
2017-08-10T11:42:41.490Z,18.3
2017-08-10T11:43:41.062Z,18.2
2017-08-10T11:44:40.356Z,18.2
2017-08-10T11:45:39.598Z,18.2
2017-08-10T11:46:39.056Z,18.3
2017-08-10T11:47:38.114Z,18.3
2017-08-10T11:48:37.802Z,18.3
2017-08-10T11:49:36.747Z,18.3
2017-08-10T11:50:36.435Z,18.3
2017-08-10T11:51:35.504Z,18.3
2017-08-10T11:52:34.701Z,18.4
2017-08-10T11:53:34.392Z,18.4
2017-08-10T11:54:33.573Z,18.4
2017-08-10T11:55:03.846Z,18.4
2017-08-10T11:55:34.108Z,18.5
2017-08-10T11:56:04.396Z,18.5
2017-08-10T11:56:34.790Z,18.5
2017-08-10T11:57:31.473Z,18.5
2017-08-10T11:58:30.785Z,18.6
2017-08-10T11:59:30.243Z,18.6
2017-08-10T12:00:29.451Z,18.6
2017-08-10T12:01:29.020Z,18.7
2017-08-10T12:02:28.086Z,18.8
2017-08-10T12:03:27.275Z,18.7
2017-08-10T12:04:26.723Z,18.8
2017-08-10T12:05:26.181Z,18.8
2017-08-10T12:06:25.372Z,18.9
2017-08-10T12:07:24.947Z,19
2017-08-10T12:08:24.022Z,19.1
2017-08-10T12:09:23.596Z,19.1
2017-08-10T12:10:22.662Z,19.2
2017-08-10T12:10:53.036Z,19.2
2017-08-10T12:11:23.480Z,19.3
2017-08-10T12:12:21.534Z,19.4
2017-08-10T12:13:20.877Z,19.5
2017-08-10T12:14:20.448Z,19.7
2017-08-10T12:15:19.517Z,19.8
2017-08-10T12:16:18.706Z,19.9
2017-08-10T12:17:18.383Z,20.1
2017-08-10T12:18:17.417Z,20.1
2017-08-10T12:19:17.108Z,20.2
2017-08-10T12:20:16.293Z,20.1
2017-08-10T12:21:15.491Z,20
2017-08-10T12:22:14.942Z,20
2017-08-10T12:23:14.398Z,20.1
2017-08-10T12:24:13.595Z,19.9
2017-08-10T12:25:13.028Z,19.9
2017-08-10T12:26:12.089Z,19.8
2017-08-10T12:27:11.775Z,19.8
2017-08-10T12:28:11.225Z,19.9
2017-08-10T12:29:10.303Z,19.9
2017-08-10T12:30:10.005Z,19.9
2017-08-10T12:31:08.964Z,19.9
2017-08-10T12:31:39.457Z,19.9
2017-08-10T12:32:09.823Z,19.9
2017-08-10T12:32:40.322Z,19.9
2017-08-10T12:34:07.067Z,19.7
2017-08-10T12:36:06.026Z,19.7
2017-08-10T12:37:05.471Z,19.7
2017-08-10T12:38:04.546Z,19.8
2017-08-10T12:39:04.117Z,19.8
2017-08-10T12:40:02.955Z,19.8
2017-08-10T12:41:02.912Z,19.8